createdAt,value
2022-10-02T00:00:21.980Z,10.10
2022-10-02T00:04:49.277Z,10.00
2022-10-02T00:09:10.965Z,10.00
2022-10-02T00:13:40.790Z,10.00
2022-10-02T00:18:07.137Z,10.10
2022-10-02T00:22:38.137Z,10.10
2022-10-02T00:27:15.399Z,10.10
2022-10-02T00:31:54.180Z,10.10
2022-10-02T00:36:16.941Z,10.10
2022-10-02T00:40:59.801Z,10.10
2022-10-02T00:45:35.830Z,10.10
2022-10-02T00:50:07.003Z,10.10
2022-10-02T00:54:51.782Z,10.00
2022-10-02T00:59:17.584Z,9.90
2022-10-02T01:03:44.167Z,9.90
2022-10-02T01:08:02.180Z,9.80
2022-10-02T01:12:19.634Z,9.80
2022-10-02T01:16:38.243Z,9.80
2022-10-02T01:21:07.574Z,9.70
2022-10-02T01:25:28.149Z,9.80
2022-10-02T01:29:50.498Z,9.80
2022-10-02T01:34:08.662Z,9.70
2022-10-02T01:38:26.537Z,9.70
2022-10-02T01:42:43.745Z,9.60
2022-10-02T01:47:04.795Z,9.70
2022-10-02T01:51:39.426Z,9.70
2022-10-02T01:56:05.317Z,10.00
2022-10-02T02:00:25.832Z,10.10
2022-10-02T02:05:18.547Z,10.10
2022-10-02T02:09:50.614Z,10.20
2022-10-02T02:14:20.362Z,10.20
2022-10-02T02:18:49.088Z,10.10
2022-10-02T02:23:11.114Z,10.10
2022-10-02T02:27:33.353Z,10.10
2022-10-02T02:31:53.358Z,10.00
2022-10-02T02:36:18.534Z,10.10
2022-10-02T02:40:41.461Z,10.10
2022-10-02T02:45:06.848Z,10.20
2022-10-02T02:49:26.670Z,10.10
2022-10-02T02:53:56.821Z,10.10
2022-10-02T02:58:35.287Z,10.10
2022-10-02T03:02:54.574Z,10.20
2022-10-02T03:07:16.230Z,10.10
2022-10-02T03:11:52.590Z,9.90
2022-10-02T03:16:36.025Z,9.80
2022-10-02T03:21:14.911Z,9.70
2022-10-02T03:25:59.641Z,9.80
2022-10-02T03:30:21.879Z,9.80
2022-10-02T03:34:40.106Z,9.80
2022-10-02T03:39:23.712Z,9.60
2022-10-02T03:43:39.047Z,9.50
2022-10-02T03:47:56.530Z,9.40
2022-10-02T03:52:22.302Z,9.40
2022-10-02T03:56:50.533Z,9.30
2022-10-02T04:01:19.636Z,9.20
2022-10-02T04:06:00.833Z,9.30
2022-10-02T04:10:33.250Z,9.20
2022-10-02T04:14:57.130Z,9.30
2022-10-02T04:19:26.065Z,9.30
2022-10-02T04:23:50.112Z,9.10
2022-10-02T04:28:15.495Z,9.00
2022-10-02T04:32:34.725Z,9.20
2022-10-02T04:37:13.453Z,9.20
2022-10-02T04:42:09.714Z,9.10
2022-10-02T04:46:38.949Z,9.00
2022-10-02T04:51:16.331Z,9.40
2022-10-02T04:55:51.612Z,9.50
2022-10-02T05:00:18.573Z,9.60
2022-10-02T05:04:56.649Z,9.70
2022-10-02T05:09:42.997Z,9.80
2022-10-02T05:14:13.150Z,9.90
2022-10-02T05:18:58.086Z,9.90
2022-10-02T05:23:47.557Z,9.90
2022-10-02T05:28:32.899Z,9.90
2022-10-02T05:33:31.661Z,10.00
2022-10-02T05:38:19.199Z,10.00
2022-10-02T05:42:43.262Z,10.10
2022-10-02T05:47:20.834Z,10.30
2022-10-02T05:51:44.783Z,10.50
2022-10-02T05:56:12.200Z,10.70
2022-10-02T06:00:44.746Z,10.80
2022-10-02T06:05:12.491Z,10.80
2022-10-02T06:09:35.990Z,10.90
2022-10-02T06:14:00.685Z,10.80
2022-10-02T06:18:25.599Z,10.80
2022-10-02T06:22:51.307Z,10.90
2022-10-02T06:27:22.298Z,11.00
2022-10-02T06:32:05.008Z,11.10
2022-10-02T06:36:42.819Z,11.20
2022-10-02T06:41:16.602Z,11.20
2022-10-02T06:45:48.417Z,11.20
2022-10-02T06:50:28.086Z,11.20
2022-10-02T06:55:00.658Z,11.40
2022-10-02T06:59:28.765Z,11.50
2022-10-02T07:04:04.488Z,11.60
2022-10-02T07:08:44.073Z,11.90
2022-10-02T07:13:30.214Z,12.20
2022-10-02T07:18:19.620Z,12.50
2022-10-02T07:22:55.038Z,12.70
2022-10-02T07:27:24.897Z,12.90
2022-10-02T07:32:03.814Z,13.10
2022-10-02T07:36:53.440Z,13.10
2022-10-02T07:41:41.856Z,13.10
2022-10-02T07:46:31.958Z,13.30
2022-10-02T07:50:56.257Z,13.50
2022-10-02T07:55:21.452Z,13.80
2022-10-02T07:59:43.631Z,13.70
2022-10-02T08:04:02.253Z,13.90
2022-10-02T08:08:23.495Z,14.30
2022-10-02T08:12:50.029Z,14.50
2022-10-02T08:17:39.713Z,14.50
2022-10-02T08:22:23.634Z,14.50
2022-10-02T08:26:48.087Z,14.60
2022-10-02T08:31:14.334Z,14.30
2022-10-02T08:35:53.529Z,14.40
2022-10-02T08:40:48.618Z,14.60
2022-10-02T08:45:40.892Z,15.20
2022-10-02T08:50:30.260Z,15.20
2022-10-02T08:55:02.096Z,15.20
2022-10-02T08:59:31.421Z,15.80
2022-10-02T09:04:00.762Z,15.80
2022-10-02T09:08:57.321Z,15.80
2022-10-02T09:13:44.605Z,15.70
2022-10-02T09:18:44.508Z,15.50
2022-10-02T09:23:20.431Z,15.60
2022-10-02T09:27:46.288Z,15.90
2022-10-02T09:32:15.818Z,15.70
2022-10-02T09:37:09.388Z,15.50
2022-10-02T09:42:03.895Z,15.80
2022-10-02T09:46:52.798Z,16.30
2022-10-02T09:51:44.959Z,16.80
2022-10-02T09:56:35.059Z,17.00
2022-10-02T10:01:17.247Z,16.90
2022-10-02T10:05:49.014Z,16.90
2022-10-02T10:10:44.928Z,16.70
2022-10-02T10:15:23.587Z,16.50
2022-10-02T10:20:02.843Z,15.90
2022-10-02T10:24:43.493Z,15.50
2022-10-02T10:29:31.790Z,15.30
2022-10-02T10:34:36.088Z,15.50
2022-10-02T10:39:32.123Z,15.40
2022-10-02T10:44:22.027Z,15.50
2022-10-02T10:49:05.171Z,15.60
2022-10-02T10:53:46.487Z,15.60
2022-10-02T10:58:21.201Z,15.50
2022-10-02T11:02:59.688Z,15.60
2022-10-02T11:07:35.250Z,15.90
2022-10-02T11:12:09.436Z,16.00
2022-10-02T11:16:59.144Z,16.40
2022-10-02T11:21:34.132Z,16.30
2022-10-02T11:26:01.007Z,15.90
2022-10-02T11:30:32.924Z,15.60
2022-10-02T11:35:03.063Z,15.70
2022-10-02T11:39:40.160Z,15.90
2022-10-02T11:44:01.863Z,16.30
2022-10-02T11:48:44.265Z,16.30
2022-10-02T11:53:45.151Z,16.60
2022-10-02T11:58:12.612Z,16.50
2022-10-02T12:02:57.992Z,16.40
2022-10-02T12:07:39.059Z,16.60
2022-10-02T12:12:28.247Z,16.50
2022-10-02T12:17:22.298Z,16.90
2022-10-02T12:22:19.128Z,16.70
2022-10-02T12:27:00.380Z,17.00
2022-10-02T12:31:45.637Z,16.60
2022-10-02T12:36:19.858Z,16.60
2022-10-02T12:41:03.290Z,16.40
2022-10-02T12:45:23.497Z,16.70
2022-10-02T12:50:07.139Z,17.20
2022-10-02T12:55:05.429Z,17.40
2022-10-02T12:59:51.514Z,16.60
2022-10-02T13:04:38.042Z,16.30
2022-10-02T13:09:18.470Z,16.20
2022-10-02T13:14:05.562Z,16.10
2022-10-02T13:18:55.382Z,16.30
2022-10-02T13:23:41.985Z,16.70
2022-10-02T13:28:32.617Z,16.80
2022-10-02T13:32:56.387Z,16.00
2022-10-02T13:37:49.159Z,15.90
2022-10-02T13:42:06.663Z,16.20
2022-10-02T13:46:38.670Z,16.30
2022-10-02T13:51:18.978Z,16.40
2022-10-02T13:55:59.612Z,16.40
2022-10-02T14:00:39.116Z,16.10
2022-10-02T14:05:04.485Z,16.30
2022-10-02T14:09:41.899Z,16.60
2022-10-02T14:14:36.586Z,16.50
2022-10-02T14:19:20.087Z,16.20
2022-10-02T14:24:01.327Z,15.80
2022-10-02T14:28:47.542Z,15.80
2022-10-02T14:33:10.407Z,15.70
2022-10-02T14:37:33.514Z,15.50
2022-10-02T14:42:01.260Z,15.40
2022-10-02T14:46:53.688Z,15.00
2022-10-02T14:51:20.962Z,15.00
2022-10-02T14:55:47.669Z,14.70
2022-10-02T15:00:14.538Z,14.30
2022-10-02T15:05:05.770Z,14.00
2022-10-02T15:10:00.809Z,13.90
2022-10-02T15:14:31.108Z,13.80
2022-10-02T15:18:59.356Z,13.80
2022-10-02T15:23:40.437Z,13.70
2022-10-02T15:28:35.797Z,13.60
2022-10-02T15:33:23.777Z,13.60
2022-10-02T15:37:55.176Z,13.60
2022-10-02T15:42:32.962Z,13.50
2022-10-02T15:47:23.812Z,13.40
2022-10-02T15:51:43.980Z,13.40
2022-10-02T15:56:25.549Z,13.40
2022-10-02T16:01:01.125Z,13.30
2022-10-02T16:05:25.109Z,13.20
2022-10-02T16:10:02.109Z,13.10
2022-10-02T16:15:07.907Z,13.10
2022-10-02T16:19:55.397Z,13.00
2022-10-02T16:24:58.909Z,12.80
2022-10-02T16:29:30.167Z,12.70
2022-10-02T16:34:00.191Z,12.60
2022-10-02T16:38:28.477Z,12.50
2022-10-02T16:43:14.261Z,12.40
2022-10-02T16:48:02.429Z,12.40
2022-10-02T16:52:30.205Z,12.40
2022-10-02T16:57:15.029Z,12.50
2022-10-02T17:01:59.388Z,12.50
2022-10-02T17:06:28.177Z,12.60
2022-10-02T17:11:27.913Z,12.70
2022-10-02T17:15:49.440Z,12.70
2022-10-02T17:20:19.549Z,12.90
2022-10-02T17:24:47.857Z,12.90
2022-10-02T17:29:26.709Z,12.80
2022-10-02T17:33:52.768Z,12.70
2022-10-02T17:38:24.774Z,12.50
2022-10-02T17:43:17.962Z,12.40
2022-10-02T17:47:56.081Z,12.30
2022-10-02T17:53:03.123Z,12.20
2022-10-02T17:58:08.087Z,12.10
2022-10-02T18:02:56.299Z,11.90
2022-10-02T18:07:16.299Z,11.90
2022-10-02T18:12:01.179Z,11.80
2022-10-02T18:16:33.960Z,11.70
2022-10-02T18:21:21.199Z,11.60
2022-10-02T18:25:50.893Z,11.50
2022-10-02T18:30:08.813Z,11.40
2022-10-02T18:34:55.680Z,11.40
2022-10-02T18:39:26.282Z,11.30
2022-10-02T18:43:53.359Z,11.50
2022-10-02T18:48:31.927Z,11.50
2022-10-02T18:53:11.931Z,11.60
2022-10-02T18:57:51.783Z,11.70
2022-10-02T19:02:17.215Z,11.80
2022-10-02T19:06:52.322Z,11.80
2022-10-02T19:11:18.489Z,11.90
2022-10-02T19:15:36.669Z,11.80
2022-10-02T19:19:54.367Z,11.90
2022-10-02T19:24:15.985Z,11.90
2022-10-02T19:28:45.614Z,11.90
2022-10-02T19:33:12.404Z,11.90
2022-10-02T19:37:31.580Z,11.90
2022-10-02T19:41:53.129Z,11.90
2022-10-02T19:46:11.276Z,11.90
2022-10-02T19:50:42.008Z,11.80
2022-10-02T19:55:04.357Z,11.80
2022-10-02T19:59:30.513Z,11.80
2022-10-02T20:03:54.416Z,11.70
2022-10-02T20:08:17.154Z,11.80
2022-10-02T20:12:46.268Z,11.80
2022-10-02T20:17:09.655Z,11.80
2022-10-02T20:21:58.171Z,11.80
2022-10-02T20:26:19.797Z,11.80
2022-10-02T20:30:45.445Z,11.80
2022-10-02T20:35:22.737Z,11.80
2022-10-02T20:39:58.799Z,11.80
2022-10-02T20:44:19.205Z,11.80
2022-10-02T20:49:09.923Z,11.80
2022-10-02T20:53:52.524Z,11.70
2022-10-02T20:58:41.675Z,11.70
2022-10-02T21:03:17.721Z,11.60
2022-10-02T21:08:02.170Z,11.50
2022-10-02T21:12:32.522Z,11.40
2022-10-02T21:17:04.610Z,11.40
2022-10-02T21:21:33.880Z,11.30
2022-10-02T21:25:59.916Z,11.30
2022-10-02T21:30:18.424Z,11.30
2022-10-02T21:34:54.546Z,11.30
2022-10-02T21:39:23.600Z,11.10
2022-10-02T21:43:56.773Z,11.10
2022-10-02T21:48:52.021Z,11.00
2022-10-02T21:53:24.332Z,11.00
2022-10-02T21:57:50.870Z,11.00
2022-10-02T22:02:11.666Z,11.10
2022-10-02T22:06:45.125Z,11.10
2022-10-02T22:11:22.720Z,11.20
2022-10-02T22:15:40.009Z,11.10
2022-10-02T22:20:39.368Z,11.00
2022-10-02T22:25:02.371Z,11.00
2022-10-02T22:29:25.520Z,11.00
2022-10-02T22:33:55.021Z,11.10
2022-10-02T22:38:26.007Z,11.00
2022-10-02T22:42:50.273Z,11.00
2022-10-02T22:47:24.928Z,11.00
2022-10-02T22:52:00.007Z,11.00
2022-10-02T22:56:28.697Z,11.00
2022-10-02T23:00:58.602Z,10.90
2022-10-02T23:05:44.598Z,10.80
2022-10-02T23:10:17.698Z,10.80
2022-10-02T23:15:14.147Z,10.90
2022-10-02T23:19:43.090Z,11.00
2022-10-02T23:24:12.202Z,11.00
2022-10-02T23:28:55.692Z,11.10
2022-10-02T23:33:29.334Z,11.20
2022-10-02T23:38:23.311Z,11.20
2022-10-02T23:42:56.246Z,11.10
2022-10-02T23:47:27.368Z,11.10
2022-10-02T23:52:17.397Z,11.10
2022-10-02T23:56:53.193Z,11.10
